Time;durP1;ratioP1;P1;durP2;ratioP2;P2;SDS_P1;SDS_P2;PMS_P1;PMS_P2;Temp;Humidity;BMP_temperature;BMP_pressure;BME280_temperature;BME280_humidity;BME280_pressure;Samples;Min_cycle;Max_cycle;Signal;HPM_P1;HPM_P2
2021/12/24 00:01:16;;;;;;;5.57;4.33;;;0.30;99.90;;;;;;5047918;28;20544;-57
2021/12/24 00:03:43;;;;;;;6.07;5.50;;;0.30;99.90;;;;;;5046870;28;20560;-58
2021/12/24 00:06:11;;;;;;;5.20;4.70;;;0.40;99.90;;;;;;5046135;28;20986;-58
2021/12/24 00:08:39;;;;;;;5.63;3.87;;;0.40;99.90;;;;;;5045253;28;20538;-57
2021/12/24 00:11:08;;;;;;;5.00;3.70;;;0.40;99.90;;;;;;5044421;28;20493;-57
2021/12/24 00:13:41;;;;;;;5.57;4.07;;;0.40;99.90;;;;;;5044814;28;20476;-56
2021/12/24 00:16:17;;;;;;;7.40;6.00;;;0.40;99.90;;;;;;5046299;28;20440;-57
2021/12/24 00:18:50;;;;;;;8.43;5.90;;;0.40;99.90;;;;;;5047694;28;20450;-56
2021/12/24 00:35:21;;;;;;;4.13;3.20;;;0.30;99.90;;;;;;5045771;28;20515;-57
2021/12/24 00:37:49;;;;;;;4.00;3.60;;;0.30;99.90;;;;;;5050641;28;20446;-56
2021/12/24 00:40:19;;;;;;;3.10;2.90;;;0.40;99.90;;;;;;5048639;28;20559;-56
2021/12/24 00:42:48;;;;;;;3.63;3.10;;;0.40;99.90;;;;;;5048449;28;21019;-56
2021/12/24 00:45:17;;;;;;;6.20;5.60;;;0.40;99.90;;;;;;5049646;28;20566;-57
2021/12/24 00:47:44;;;;;;;7.07;6.37;;;0.40;99.90;;;;;;5048006;28;21057;-56
2021/12/24 00:50:15;;;;;;;8.60;5.53;;;0.40;99.90;;;;;;5044305;28;20905;-56
2021/12/24 00:52:49;;;;;;;9.93;7.20;;;0.40;99.90;;;;;;5049585;28;20446;-55
2021/12/24 00:55:17;;;;;;;7.37;6.63;;;0.40;99.90;;;;;;5044905;28;20446;-56
2021/12/24 00:57:47;;;;;;;10.67;8.57;;;0.40;99.90;;;;;;5049657;28;20442;-56
2021/12/24 01:00:17;;;;;;;8.13;6.97;;;0.40;99.90;;;;;;5047877;28;20528;-55
2021/12/24 01:02:45;;;;;;;10.90;8.73;;;0.40;99.90;;;;;;5048189;28;20571;-57
2021/12/24 01:05:13;;;;;;;11.47;8.57;;;0.40;99.90;;;;;;5049009;28;20626;-57
2021/12/24 01:07:40;;;;;;;13.90;8.97;;;0.40;99.90;;;;;;5049049;28;20522;-57
2021/12/24 01:10:09;;;;;;;6.80;6.10;;;0.40;99.90;;;;;;5048256;28;20903;-54
2021/12/24 01:12:36;;;;;;;3.30;3.00;;;0.30;99.90;;;;;;5051419;28;20471;-56
2021/12/24 01:15:05;;;;;;;3.90;1.60;;;0.30;99.90;;;;;;5046784;28;20551;-56
2021/12/24 01:17:38;;;;;;;1.57;1.47;;;0.40;99.90;;;;;;5046529;28;20540;-56
2021/12/24 01:20:15;;;;;;;1.70;1.40;;;0.50;99.90;;;;;;5047265;28;20815;-56
2021/12/24 01:25:35;;;;;;;1.83;1.30;;;0.50;99.90;;;;;;5047690;28;20606;-56
2021/12/24 01:28:27;;;;;;;2.07;1.00;;;0.50;99.90;;;;;;5048883;28;20444;-64
2021/12/24 01:39:13;;;;;;;7.17;4.63;;;0.30;99.90;;;;;;5047830;28;20982;-58
2021/12/24 01:44:28;;;;;;;3.37;2.17;;;0.20;99.90;;;;;;5062147;22;1174920;-56
2021/12/24 01:46:56;;;;;;;3.33;2.33;;;0.10;99.90;;;;;;5105065;28;20213;-54
2021/12/24 01:49:24;;;;;;;2.90;2.10;;;0.10;99.90;;;;;;5110742;28;20457;-57
2021/12/24 01:51:52;;;;;;;3.43;2.50;;;0.10;99.90;;;;;;5095559;28;20476;-58
2021/12/24 01:54:19;;;;;;;2.77;1.60;;;0.10;99.90;;;;;;5105942;28;20529;-57
2021/12/24 01:56:48;;;;;;;2.20;1.63;;;0.00;99.90;;;;;;5108025;27;20480;-57
2021/12/24 01:59:16;;;;;;;1.70;1.60;;;0.10;99.90;;;;;;5107792;28;20466;-56
2021/12/24 02:01:44;;;;;;;0.90;0.90;;;0.10;99.90;;;;;;5101162;28;20968;-57
2021/12/24 02:04:13;;;;;;;1.17;1.00;;;0.10;99.90;;;;;;5101990;27;20496;-57
2021/12/24 02:06:41;;;;;;;0.70;0.70;;;0.20;99.90;;;;;;5103943;28;20510;-56
2021/12/24 02:09:09;;;;;;;1.33;1.10;;;0.20;99.90;;;;;;5103862;27;20492;-57
2021/12/24 02:11:38;;;;;;;2.00;0.90;;;0.20;99.90;;;;;;5109993;28;20498;-59
2021/12/24 02:14:07;;;;;;;1.90;1.20;;;0.20;99.90;;;;;;5101037;28;20458;-57
2021/12/24 02:16:47;;;;;;;2.30;1.50;;;0.30;99.90;;;;;;5101545;28;20440;-57
2021/12/24 02:30:36;;;;;;;1.00;0.70;;;0.10;99.90;;;;;;5107140;28;20481;-57
2021/12/24 02:33:05;;;;;;;4.03;2.90;;;0.20;99.90;;;;;;5098247;27;20475;-57
2021/12/24 02:35:33;;;;;;;6.57;4.57;;;0.20;99.90;;;;;;5108910;28;20494;-56
2021/12/24 02:38:02;;;;;;;5.13;1.90;;;0.00;99.90;;;;;;5105200;28;20483;-58
2021/12/24 02:40:30;;;;;;;1.20;1.10;;;-0.10;99.90;;;;;;5104134;28;20478;-56
2021/12/24 02:42:58;;;;;;;1.17;0.70;;;-0.10;99.90;;;;;;5105999;28;20532;-56
2021/12/24 02:45:28;;;;;;;2.50;1.50;;;-0.10;99.90;;;;;;5103969;28;20480;-55
2021/12/24 02:48:11;;;;;;;3.37;2.23;;;-0.10;99.90;;;;;;5097439;27;20473;-57
2021/12/24 02:56:11;;;;;;;2.40;1.63;;;-0.10;99.90;;;;;;5100452;27;21023;-56
2021/12/24 02:58:40;;;;;;;1.77;1.17;;;0.00;99.90;;;;;;5111718;27;20457;-56
2021/12/24 03:01:07;;;;;;;1.20;1.10;;;0.00;99.90;;;;;;5100781;28;20465;-58
2021/12/24 03:03:34;;;;;;;1.67;1.47;;;0.00;99.90;;;;;;5098043;28;20529;-57
2021/12/24 03:06:01;;;;;;;4.90;1.70;;;0.00;99.90;;;;;;5107476;28;20558;-57
2021/12/24 03:08:30;;;;;;;5.70;1.00;;;0.00;99.90;;;;;;5099784;28;20887;-57
2021/12/24 03:10:58;;;;;;;1.23;0.90;;;0.00;99.90;;;;;;5101888;28;20500;-56
2021/12/24 03:13:26;;;;;;;2.77;1.00;;;0.00;99.90;;;;;;5105663;28;20467;-57
2021/12/24 03:15:55;;;;;;;0.60;0.53;;;0.00;99.90;;;;;;5101102;28;20982;-57
2021/12/24 03:18:26;;;;;;;6.50;4.40;;;0.10;99.90;;;;;;5106162;28;20446;-57
2021/12/24 03:21:00;;;;;;;8.07;4.67;;;0.10;99.90;;;;;;5103915;28;20444;-58
2021/12/24 03:23:36;;;;;;;2.40;2.20;;;0.10;99.90;;;;;;5103926;28;20449;-57
2021/12/24 03:26:05;;;;;;;2.33;1.20;;;-0.40;99.90;;;;;;5104803;27;20481;-56
2021/12/24 03:28:33;;;;;;;1.20;1.10;;;-0.40;99.90;;;;;;5101848;28;20543;-57
2021/12/24 03:31:00;;;;;;;1.67;0.80;;;-0.40;99.90;;;;;;5095500;28;20487;-56
2021/12/24 03:33:27;;;;;;;1.10;1.00;;;-0.40;99.90;;;;;;5107885;28;20866;-57
2021/12/24 03:35:54;;;;;;;1.30;0.90;;;-0.30;99.90;;;;;;5102064;28;20535;-57
2021/12/24 03:38:21;;;;;;;0.60;0.60;;;-0.30;99.90;;;;;;5110241;28;20456;-57
2021/12/24 03:40:48;;;;;;;2.93;0.97;;;-0.20;99.90;;;;;;5104992;28;20522;-57
2021/12/24 03:43:17;;;;;;;1.10;0.90;;;-0.30;99.90;;;;;;5100405;28;20523;-58
2021/12/24 03:45:55;;;;;;;1.73;0.97;;;-0.30;99.90;;;;;;5104462;28;21102;-56
2021/12/24 03:48:26;;;;;;;1.27;1.17;;;-0.40;99.90;;;;;;5094416;28;20451;-56
2021/12/24 03:51:00;;;;;;;1.63;1.43;;;-0.60;99.90;;;;;;5097063;28;20484;-57
2021/12/24 03:56:11;;;;;;;3.33;2.10;;;-0.50;99.90;;;;;;5105048;28;20423;-56
2021/12/24 03:58:39;;;;;;;2.77;1.60;;;-0.50;99.90;;;;;;5106083;27;20479;-57
2021/12/24 04:01:07;;;;;;;29.73;18.50;;;-0.40;99.90;;;;;;5107408;28;20530;-57
2021/12/24 04:03:34;;;;;;;8.90;6.97;;;-0.40;99.90;;;;;;5105556;28;20525;-57
2021/12/24 04:06:01;;;;;;;2.70;2.00;;;-0.40;99.90;;;;;;5107435;27;20563;-59
2021/12/24 04:08:28;;;;;;;2.43;1.33;;;-0.30;99.90;;;;;;5108219;28;20471;-57
2021/12/24 04:10:55;;;;;;;1.40;1.30;;;-0.40;99.90;;;;;;5102802;28;20524;-57
2021/12/24 04:13:22;;;;;;;1.57;1.47;;;-0.40;99.90;;;;;;5103601;27;20450;-57
2021/12/24 04:15:50;;;;;;;3.10;2.43;;;-0.40;99.90;;;;;;5109601;28;20876;-57
2021/12/24 04:18:22;;;;;;;2.93;2.00;;;-0.30;99.90;;;;;;5106821;27;20529;-57
2021/12/24 04:26:27;;;;;;;2.20;1.60;;;-0.30;99.90;;;;;;5107017;27;20528;-56
2021/12/24 04:28:54;;;;;;;2.23;1.80;;;-0.40;99.90;;;;;;5110067;28;20983;-55
2021/12/24 04:31:28;;;;;;;1.37;1.27;;;-0.40;99.90;;;;;;5107323;28;20530;-57
2021/12/24 04:33:59;;;;;;;1.90;1.80;;;-0.30;99.90;;;;;;5100188;28;20548;-57
2021/12/24 04:36:43;;;;;;;1.87;1.73;;;-0.30;99.90;;;;;;5108513;28;20452;-57
2021/12/24 05:01:10;;;;;;;1.60;1.40;;;-0.40;99.90;;;;;;5054895;28;20446;-59
2021/12/24 05:01:38;;;;;;;1.70;1.00;;;-0.40;99.90;;;;;;5056889;28;20482;-57
2021/12/24 05:04:08;;;;;;;1.90;0.87;;;-0.40;99.90;;;;;;5057900;28;20474;-58
2021/12/24 05:06:39;;;;;;;1.37;0.90;;;-0.30;99.90;;;;;;5059964;28;20451;-57
2021/12/24 05:09:09;;;;;;;1.70;1.50;;;-0.30;99.90;;;;;;5056086;28;20458;-57
2021/12/24 05:11:37;;;;;;;1.40;1.30;;;-0.20;99.90;;;;;;5063522;28;20439;-57
2021/12/24 05:14:06;;;;;;;1.17;1.17;;;-0.20;99.90;;;;;;5061590;28;20903;-57
2021/12/24 05:16:43;;;;;;;2.83;2.63;;;-0.20;99.90;;;;;;5058015;28;20541;-59
2021/12/24 05:21:55;;;;;;;3.83;2.93;;;-0.40;99.90;;;;;;5057371;28;20476;-59
2021/12/24 05:24:24;;;;;;;3.60;2.60;;;-0.90;99.90;;;;;;5053317;28;20842;-57
2021/12/24 05:26:55;;;;;;;5.10;3.30;;;-0.90;99.90;;;;;;5068341;28;20448;-58
2021/12/24 05:29:24;;;;;;;4.03;2.63;;;-0.90;99.90;;;;;;5054402;28;20475;-58
2021/12/24 05:31:51;;;;;;;2.70;2.50;;;-0.80;99.90;;;;;;5050954;28;20525;-54
2021/12/24 05:34:19;;;;;;;2.40;2.20;;;-0.70;99.90;;;;;;5059884;28;20502;-59
2021/12/24 05:36:47;;;;;;;1.37;1.27;;;-0.60;99.90;;;;;;5053147;28;20546;-57
2021/12/24 05:39:16;;;;;;;1.27;1.10;;;-0.60;99.90;;;;;;5056641;28;20535;-56
2021/12/24 05:41:43;;;;;;;3.10;2.60;;;-0.50;99.90;;;;;;5061800;28;20476;-57
2021/12/24 05:44:15;;;;;;;5.17;4.00;;;-0.50;99.90;;;;;;5053112;28;20722;-57
2021/12/24 05:46:45;;;;;;;2.30;2.10;;;-0.40;99.90;;;;;;5062878;28;20951;-57
2021/12/24 05:49:12;;;;;;;4.03;3.10;;;-0.50;99.90;;;;;;5067146;28;20447;-57
2021/12/24 05:51:39;;;;;;;2.53;1.70;;;-0.60;99.90;;;;;;5061828;28;20986;-57
2021/12/24 05:54:06;;;;;;;7.50;6.80;;;-0.70;99.90;;;;;;5057149;28;21003;-58
2021/12/24 05:56:33;;;;;;;11.23;6.50;;;-0.60;99.90;;;;;;5043001;28;20534;-57
2021/12/24 05:59:00;;;;;;;5.83;4.13;;;-0.50;99.90;;;;;;5041555;28;20524;-55
2021/12/24 06:01:27;;;;;;;4.90;3.40;;;-0.60;99.90;;;;;;5043952;28;20534;-57
2021/12/24 06:03:55;;;;;;;4.23;3.00;;;-0.60;99.90;;;;;;5045048;28;20561;-57
2021/12/24 06:06:23;;;;;;;5.33;2.77;;;-0.50;99.90;;;;;;5039246;28;20506;-59
2021/12/24 06:08:50;;;;;;;1.87;1.67;;;-0.50;99.90;;;;;;5040756;28;20479;-57
2021/12/24 06:11:17;;;;;;;1.93;1.73;;;-0.50;99.90;;;;;;5044974;28;20990;-57
2021/12/24 06:13:44;;;;;;;3.03;1.67;;;-0.50;99.90;;;;;;5041297;28;20562;-57
2021/12/24 06:16:11;;;;;;;2.97;2.63;;;-0.40;99.90;;;;;;5045801;28;20453;-57
2021/12/24 06:18:40;;;;;;;3.57;3.27;;;-0.40;99.90;;;;;;5041384;28;20486;-57
2021/12/24 06:21:09;;;;;;;3.33;3.03;;;-0.40;99.90;;;;;;5046817;28;20540;-57
2021/12/24 06:23:39;;;;;;;2.10;2.00;;;-0.50;99.90;;;;;;5053030;28;20454;-57
2021/12/24 06:26:08;;;;;;;2.20;2.00;;;-0.80;99.90;;;;;;5047858;28;20447;-57
2021/12/24 06:28:36;;;;;;;2.30;2.20;;;-0.70;99.90;;;;;;5040574;28;20549;-58
2021/12/24 06:31:03;;;;;;;2.20;2.00;;;-0.60;99.90;;;;;;5035204;28;21412;-57
2021/12/24 06:33:31;;;;;;;5.87;5.10;;;-0.50;99.90;;;;;;5037289;28;20463;-57
2021/12/24 06:35:58;;;;;;;7.00;6.00;;;-0.40;99.90;;;;;;5046690;28;20528;-57
2021/12/24 06:38:27;;;;;;;8.80;6.30;;;-0.40;99.90;;;;;;5049969;28;20442;-57
2021/12/24 06:40:54;;;;;;;5.60;4.73;;;-0.80;99.90;;;;;;5043881;28;20567;-57
2021/12/24 06:43:21;;;;;;;4.73;3.77;;;-1.00;99.90;;;;;;5042558;28;20894;-57
2021/12/24 06:45:49;;;;;;;4.83;3.43;;;-1.00;99.90;;;;;;5053843;28;20513;-58
2021/12/24 06:48:17;;;;;;;3.40;3.07;;;-0.90;99.90;;;;;;5043090;28;20446;-57
2021/12/24 06:50:44;;;;;;;3.33;3.03;;;-0.70;99.90;;;;;;5043869;28;20437;-54
2021/12/24 06:53:11;;;;;;;3.70;3.07;;;-0.70;99.90;;;;;;5047945;28;20474;-57
2021/12/24 06:55:39;;;;;;;2.63;2.33;;;-0.60;99.90;;;;;;5043723;28;20578;-58
2021/12/24 06:58:06;;;;;;;8.23;5.57;;;-0.50;99.90;;;;;;5044014;28;20530;-57
2021/12/24 07:00:34;;;;;;;2.63;2.43;;;-0.40;99.90;;;;;;5047181;28;20471;-58
2021/12/24 07:03:01;;;;;;;3.17;2.13;;;-0.40;99.90;;;;;;5039697;28;20480;-58
2021/12/24 07:05:28;;;;;;;2.03;1.80;;;-0.40;99.90;;;;;;5038094;28;20497;-58
2021/12/24 07:07:54;;;;;;;1.80;1.50;;;-0.30;99.90;;;;;;5049099;28;20540;-57
2021/12/24 07:10:21;;;;;;;1.77;1.50;;;-0.30;99.90;;;;;;5044141;28;21179;-57
2021/12/24 07:12:50;;;;;;;1.90;1.30;;;-0.20;99.90;;;;;;5042291;28;20486;-58
2021/12/24 07:15:17;;;;;;;1.37;1.27;;;-0.20;99.90;;;;;;5049019;28;20535;-59
2021/12/24 07:17:44;;;;;;;1.60;1.03;;;-0.20;99.90;;;;;;5039664;28;20931;-57
2021/12/24 07:20:12;;;;;;;0.97;0.93;;;-0.10;99.90;;;;;;5042800;28;20456;-57
2021/12/24 07:22:39;;;;;;;1.37;1.13;;;-0.10;99.90;;;;;;5047798;28;20536;-58
2021/12/24 07:25:07;;;;;;;1.17;0.80;;;-0.10;99.90;;;;;;5044160;28;20550;-57
2021/12/24 07:27:34;;;;;;;1.20;1.10;;;-0.10;99.90;;;;;;5041371;28;20816;-57
2021/12/24 07:30:04;;;;;;;1.50;1.40;;;-0.10;99.90;;;;;;5041553;28;20540;-58
2021/12/24 07:32:31;;;;;;;1.70;1.60;;;0.00;99.90;;;;;;5036774;28;20470;-58
2021/12/24 07:34:58;;;;;;;7.50;6.50;;;0.10;99.90;;;;;;5034935;28;20471;-57
2021/12/24 07:37:25;;;;;;;4.80;4.30;;;0.00;99.90;;;;;;5038053;28;20494;-59
2021/12/24 07:39:52;;;;;;;5.27;4.77;;;-0.30;99.90;;;;;;5042290;28;20526;-54
2021/12/24 07:42:19;;;;;;;9.17;6.90;;;-0.20;99.90;;;;;;5033264;28;20570;-57
2021/12/24 07:44:46;;;;;;;2.60;2.10;;;-0.10;99.90;;;;;;5035796;28;21047;-57
2021/12/24 07:47:26;;;;;;;2.20;1.83;;;-0.20;99.90;;;;;;5038163;28;20440;-56
2021/12/24 07:50:00;;;;;;;2.93;1.73;;;-0.20;99.90;;;;;;5038770;28;20453;-58
2021/12/24 07:52:26;;;;;;;1.70;1.60;;;-0.10;99.90;;;;;;5035152;28;20473;-57
2021/12/24 07:54:54;;;;;;;2.00;1.80;;;0.00;99.90;;;;;;5040275;28;20983;-57
2021/12/24 07:57:21;;;;;;;3.63;2.30;;;0.10;99.90;;;;;;5037038;28;20448;-54
2021/12/24 07:59:48;;;;;;;2.37;1.70;;;0.10;99.90;;;;;;5033654;28;20717;-57
2021/12/24 08:02:22;;;;;;;2.20;2.00;;;0.10;99.90;;;;;;5040155;28;20582;-58
2021/12/24 08:04:49;;;;;;;2.30;1.90;;;0.20;99.90;;;;;;5035329;28;20460;-58
2021/12/24 08:07:17;;;;;;;1.57;1.43;;;0.20;99.90;;;;;;5036186;28;20503;-58
2021/12/24 08:09:44;;;;;;;1.87;1.10;;;0.20;99.90;;;;;;5036961;28;20497;-58
2021/12/24 08:12:12;;;;;;;3.63;2.13;;;0.30;99.90;;;;;;5038544;28;20965;-59
2021/12/24 08:14:39;;;;;;;10.50;8.60;;;0.30;99.90;;;;;;5035886;28;20571;-58
2021/12/24 08:17:07;;;;;;;10.80;9.70;;;0.30;99.90;;;;;;5040053;28;20866;-58
2021/12/24 08:19:35;;;;;;;7.23;6.63;;;0.10;99.90;;;;;;5041109;28;20520;-58
2021/12/24 08:22:02;;;;;;;8.67;7.33;;;0.10;99.90;;;;;;5035215;28;20608;-58
2021/12/24 08:24:30;;;;;;;8.47;7.43;;;0.10;99.90;;;;;;5034163;28;20505;-58
2021/12/24 08:26:57;;;;;;;6.93;5.50;;;0.10;99.90;;;;;;5033346;28;20628;-58
2021/12/24 08:29:24;;;;;;;6.70;5.97;;;0.10;99.90;;;;;;5036346;28;20973;-58
2021/12/24 08:31:52;;;;;;;14.40;13.00;;;0.10;99.90;;;;;;5038571;28;20473;-58
2021/12/24 08:34:20;;;;;;;59.87;53.50;;;0.20;99.90;;;;;;5033992;28;20506;-58
2021/12/24 08:36:50;;;;;;;18.87;17.17;;;0.20;99.90;;;;;;5036573;28;21006;-58
2021/12/24 08:39:19;;;;;;;12.20;9.73;;;0.30;99.90;;;;;;5037102;28;20448;-58
2021/12/24 08:41:49;;;;;;;10.27;9.03;;;0.30;99.90;;;;;;5036375;28;20483;-59
2021/12/24 08:44:16;;;;;;;11.53;9.87;;;0.20;99.90;;;;;;5039202;28;20467;-58
2021/12/24 08:46:43;;;;;;;24.40;19.67;;;0.10;99.90;;;;;;5033741;28;20501;-58
2021/12/24 08:49:10;;;;;;;56.83;38.77;;;0.20;99.90;;;;;;5039953;28;20468;-61
2021/12/24 08:51:37;;;;;;;16.53;12.67;;;0.20;99.90;;;;;;5044004;28;20899;-58
2021/12/24 08:54:05;;;;;;;15.00;13.47;;;0.10;99.90;;;;;;5034751;28;20545;-59
2021/12/24 08:56:32;;;;;;;15.87;14.37;;;-0.30;99.90;;;;;;5037866;28;20530;-60
2021/12/24 08:58:59;;;;;;;17.50;13.17;;;-0.40;99.90;;;;;;5034612;28;20475;-56
2021/12/24 09:01:26;;;;;;;21.97;16.03;;;-0.30;99.90;;;;;;5032799;28;21071;-57
2021/12/24 09:03:53;;;;;;;15.97;14.37;;;-0.20;99.90;;;;;;5036766;28;20543;-57
2021/12/24 09:06:20;;;;;;;25.13;18.43;;;-0.20;99.90;;;;;;5034608;28;20970;-58
2021/12/24 09:08:47;;;;;;;16.27;13.10;;;-0.10;99.90;;;;;;5033056;28;20994;-57
2021/12/24 09:11:15;;;;;;;8.47;7.60;;;0.00;99.90;;;;;;5033644;28;20560;-58
2021/12/24 09:13:43;;;;;;;7.53;5.43;;;0.00;99.90;;;;;;5036553;28;20564;-58
2021/12/24 09:16:10;;;;;;;7.33;5.70;;;0.10;99.90;;;;;;5036684;28;20530;-58
2021/12/24 09:18:40;;;;;;;13.33;9.80;;;0.20;99.90;;;;;;5036863;28;20527;-58
2021/12/24 09:21:14;;;;;;;32.03;23.60;;;0.30;99.90;;;;;;5037239;28;20448;-58
2021/12/24 09:23:42;;;;;;;44.20;29.97;;;0.30;99.90;;;;;;5032336;28;20835;-58
2021/12/24 09:26:10;;;;;;;27.30;22.10;;;0.40;99.90;;;;;;5035556;28;20460;-58
2021/12/24 09:28:38;;;;;;;15.83;14.07;;;0.40;99.90;;;;;;5040836;28;20872;-58
2021/12/24 09:31:05;;;;;;;15.97;14.00;;;1.60;99.90;;;;;;5039529;28;20454;-58
2021/12/24 09:33:32;;;;;;;15.13;12.70;;;3.60;99.90;;;;;;5036774;28;20537;-58
2021/12/24 09:35:59;;;;;;;9.53;8.00;;;4.70;99.90;;;;;;5037999;28;20526;-58
2021/12/24 09:38:26;;;;;;;11.37;9.27;;;4.70;99.90;;;;;;5038360;28;20441;-58
2021/12/24 09:40:53;;;;;;;17.53;10.50;;;4.40;99.90;;;;;;5040196;28;20484;-58
2021/12/24 09:43:20;;;;;;;12.60;9.97;;;4.00;99.90;;;;;;5037374;28;21078;-58
2021/12/24 09:45:49;;;;;;;8.47;7.13;;;4.10;99.90;;;;;;5036905;28;20869;-58
2021/12/24 09:48:16;;;;;;;10.00;8.00;;;4.00;99.90;;;;;;5038720;28;20536;-58
2021/12/24 09:50:43;;;;;;;18.10;14.53;;;3.90;99.90;;;;;;5038704;28;20697;-58
2021/12/24 09:53:10;;;;;;;55.73;45.97;;;3.80;99.90;;;;;;5044516;28;20473;-58
2021/12/24 09:55:37;;;;;;;14.47;13.10;;;3.80;99.90;;;;;;5041471;28;20495;-59
2021/12/24 09:58:05;;;;;;;9.90;8.50;;;4.00;99.90;;;;;;5038410;28;20527;-59
2021/12/24 10:00:32;;;;;;;13.90;11.63;;;5.10;99.90;;;;;;5037985;28;20486;-58
2021/12/24 10:03:01;;;;;;;15.83;13.57;;;;;;;;;;5037338;28;20567;-58
2021/12/24 10:05:35;;;;;;;19.50;14.23;;;7.20;99.90;;;;;;5041759;28;20504;-58
2021/12/24 10:08:07;;;;;;;12.33;10.03;;;7.50;99.90;;;;;;5042467;28;20539;-59
2021/12/24 10:10:35;;;;;;;18.93;11.87;;;7.80;99.90;;;;;;5034504;28;20461;-58
2021/12/24 10:13:26;;;;;;;9.13;8.07;;;7.90;99.90;;;;;;5047894;28;20453;-58
2021/12/24 10:15:54;;;;;;;11.43;7.57;;;7.20;99.90;;;;;;5039943;28;20548;-58
2021/12/24 10:18:31;;;;;;;8.80;7.13;;;6.60;99.90;;;;;;5041118;28;20560;-58
2021/12/24 10:21:10;;;;;;;10.30;9.30;;;5.90;99.90;;;;;;5049916;28;20472;-59
2021/12/24 10:23:48;;;;;;;9.40;8.07;;;5.30;99.90;;;;;;5043156;28;20568;-58
2021/12/24 10:26:19;;;;;;;11.20;10.00;;;4.80;99.90;;;;;;5042886;28;20903;-58
2021/12/24 10:28:51;;;;;;;8.73;7.83;;;4.40;99.90;;;;;;5045787;28;20529;-58
2021/12/24 10:31:19;;;;;;;9.00;8.10;;;4.10;99.90;;;;;;5049493;28;20473;-59
2021/12/24 10:34:23;;;;;;;12.80;8.80;;;3.80;99.90;;;;;;5038112;28;20901;-58
2021/12/24 10:37:09;;;;;;;7.33;5.53;;;3.50;99.90;;;;;;5003064;28;21013;-58
2021/12/24 10:39:46;;;;;;;8.57;7.67;;;3.20;99.90;;;;;;5002411;28;20456;-58
2021/12/24 10:42:17;;;;;;;13.07;9.33;;;3.00;99.90;;;;;;5030871;28;20569;-58
2021/12/24 10:44:46;;;;;;;15.80;12.50;;;2.80;99.90;;;;;;5046135;28;20501;-58
2021/12/24 10:47:17;;;;;;;10.50;9.40;;;2.40;99.90;;;;;;5041735;28;20453;-59
2021/12/24 10:50:00;;;;;;;15.80;14.30;;;2.20;99.90;;;;;;5034803;28;20529;-58
2021/12/24 10:54:59;;;;;;;12.33;9.77;;;2.10;99.90;;;;;;5023120;28;20478;-51
2021/12/24 10:57:28;;;;;;;17.37;15.57;;;2.10;99.90;;;;;;5026537;28;20478;-50
2021/12/24 10:59:58;;;;;;;10.87;9.77;;;2.10;99.90;;;;;;5028959;28;20525;-52
2021/12/24 11:02:29;;;;;;;8.53;6.80;;;2.10;99.90;;;;;;5029019;28;20560;-50
2021/12/24 11:04:58;;;;;;;10.37;8.80;;;2.10;99.90;;;;;;5003367;28;20999;-50
2021/12/24 11:07:37;;;;;;;18.87;15.40;;;2.00;99.90;;;;;;5010598;28;20531;-49
2021/12/24 11:10:12;;;;;;;22.43;20.00;;;1.90;99.90;;;;;;5008323;28;20474;-51
2021/12/24 11:12:41;;;;;;;28.90;21.57;;;2.00;99.90;;;;;;5007718;28;20434;-51
2021/12/24 11:15:23;;;;;;;24.87;20.70;;;2.00;99.90;;;;;;5009925;28;20443;-50
2021/12/24 11:17:51;;;;;;;23.27;19.00;;;2.00;99.90;;;;;;5011923;28;20473;-50
2021/12/24 11:20:20;;;;;;;22.13;19.77;;;1.90;99.90;;;;;;5009849;28;20562;-50
2021/12/24 11:23:02;;;;;;;22.37;19.17;;;1.80;99.90;;;;;;5009497;28;20487;-49
2021/12/24 11:25:32;;;;;;;23.60;19.80;;;1.60;99.90;;;;;;5009307;28;20530;-53
2021/12/24 11:28:01;;;;;;;22.37;19.97;;;1.50;99.90;;;;;;5005684;28;21188;-50
2021/12/24 11:30:29;;;;;;;19.90;17.80;;;1.50;99.90;;;;;;5007241;28;20442;-50
2021/12/24 11:32:56;;;;;;;16.63;15.03;;;1.50;99.90;;;;;;5009399;28;20546;-51
2021/12/24 11:35:26;;;;;;;10.53;9.53;;;1.50;99.90;;;;;;5008426;28;20542;-55
2021/12/24 11:37:53;;;;;;;6.27;5.67;;;1.50;99.90;;;;;;5004613;28;20482;-49
2021/12/24 11:40:23;;;;;;;9.30;7.13;;;1.60;99.90;;;;;;5009341;28;20525;-50
2021/12/24 11:42:54;;;;;;;14.20;12.80;;;1.70;99.90;;;;;;5008859;28;20561;-51
2021/12/24 11:45:23;;;;;;;17.73;14.27;;;1.80;99.90;;;;;;5008070;28;20455;-51
2021/12/24 11:47:51;;;;;;;13.30;12.00;;;1.70;99.90;;;;;;5008937;28;20535;-51
2021/12/24 11:50:18;;;;;;;14.00;11.30;;;1.80;99.90;;;;;;5008851;28;20988;-48
2021/12/24 11:52:50;;;;;;;16.77;15.00;;;1.70;99.90;;;;;;5008116;28;21062;-53
2021/12/24 11:55:19;;;;;;;23.10;18.20;;;1.70;99.90;;;;;;5007957;28;20536;-51
2021/12/24 11:57:59;;;;;;;21.80;19.60;;;1.70;99.90;;;;;;5008075;28;20506;-52
2021/12/24 12:00:30;;;;;;;24.67;19.93;;;1.60;99.90;;;;;;5007898;28;20439;-51
2021/12/24 12:02:58;;;;;;;21.73;17.03;;;1.60;99.90;;;;;;5008777;28;20487;-51
2021/12/24 12:05:32;;;;;;;20.60;18.40;;;1.60;99.90;;;;;;5008252;28;20526;-49
2021/12/24 12:08:38;;;;;;;16.87;14.90;;;1.70;99.90;;;;;;5007402;28;20939;-50
2021/12/24 12:11:15;;;;;;;10.67;9.57;;;1.70;99.90;;;;;;5007888;28;20486;-50
2021/12/24 12:13:48;;;;;;;10.47;8.53;;;1.70;99.90;;;;;;5009445;28;20541;-50
2021/12/24 12:16:17;;;;;;;12.23;11.13;;;1.80;99.90;;;;;;5003360;28;20538;-54
2021/12/24 12:18:49;;;;;;;14.80;12.37;;;1.80;99.90;;;;;;5005795;28;20534;-50
2021/12/24 12:21:33;;;;;;;18.70;14.93;;;1.80;99.90;;;;;;5004845;28;20828;-50
2021/12/24 12:26:50;;;;;;;19.37;17.47;;;1.80;99.90;;;;;;5004739;28;20447;-51
2021/12/24 12:29:42;;;;;;;21.40;19.30;;;1.80;99.90;;;;;;5004283;28;20546;-53
2021/12/24 12:32:25;;;;;;;20.53;17.07;;;1.80;99.90;;;;;;5005891;28;20974;-50
2021/12/24 12:34:59;;;;;;;17.47;15.67;;;1.80;99.90;;;;;;4997156;28;20533;-49
2021/12/24 12:37:28;;;;;;;16.53;14.13;;;1.80;99.90;;;;;;5003311;28;20566;-50
2021/12/24 12:39:57;;;;;;;20.67;17.03;;;1.80;99.90;;;;;;5004501;28;20642;-50
2021/12/24 12:43:04;;;;;;;20.73;18.47;;;1.90;99.90;;;;;;5006825;28;21019;-48
2021/12/24 12:45:56;;;;;;;18.70;16.77;;;1.80;99.90;;;;;;5005020;28;20461;-50
2021/12/24 12:48:26;;;;;;;20.80;18.57;;;1.80;99.90;;;;;;5002273;28;20458;-50
2021/12/24 12:50:56;;;;;;;18.27;16.43;;;1.80;99.90;;;;;;5005142;28;20542;-51
2021/12/24 12:53:28;;;;;;;22.40;18.70;;;1.80;99.90;;;;;;5005236;28;20554;-50
2021/12/24 12:56:16;;;;;;;23.00;20.47;;;1.90;99.90;;;;;;5004695;28;20551;-50
2021/12/24 12:58:46;;;;;;;13.80;11.30;;;1.90;99.90;;;;;;5004168;28;20482;-50
2021/12/24 13:01:16;;;;;;;17.80;15.00;;;1.90;99.90;;;;;;5006604;28;20542;-52
2021/12/24 13:04:13;;;;;;;18.57;16.20;;;1.90;99.90;;;;;;5010160;28;20479;-50
2021/12/24 13:06:57;;;;;;;20.10;16.80;;;1.90;99.90;;;;;;5007251;28;20469;-50
2021/12/24 13:09:33;;;;;;;18.90;15.23;;;2.00;99.90;;;;;;5006698;28;24028;-52
2021/12/24 13:12:02;;;;;;;15.17;13.50;;;2.00;99.90;;;;;;5013583;28;20453;-50
2021/12/24 13:14:32;;;;;;;14.97;12.00;;;2.00;99.90;;;;;;5008149;28;20458;-52
2021/12/24 13:17:21;;;;;;;17.03;13.07;;;2.00;99.90;;;;;;5009320;28;20470;-50
2021/12/24 13:22:38;;;;;;;15.67;13.40;;;1.90;99.90;;;;;;5000306;28;20462;-52
2021/12/24 13:25:10;;;;;;;13.53;12.33;;;2.00;99.90;;;;;;5007243;28;20526;-51
2021/12/24 13:27:40;;;;;;;16.10;13.67;;;2.00;99.90;;;;;;5010670;28;21143;-48
2021/12/24 13:30:17;;;;;;;15.33;13.33;;;2.10;99.90;;;;;;5008476;28;20526;-50
2021/12/24 13:32:47;;;;;;;20.60;16.23;;;2.10;99.90;;;;;;5008589;28;20445;-50
2021/12/24 13:35:15;;;;;;;26.07;20.70;;;2.10;99.90;;;;;;5007760;28;20530;-51
2021/12/24 13:37:45;;;;;;;20.77;18.50;;;2.00;99.90;;;;;;5006385;28;20748;-51
2021/12/24 13:40:16;;;;;;;19.53;16.53;;;1.90;99.90;;;;;;5011615;28;20835;-51
2021/12/24 13:42:45;;;;;;;18.13;15.83;;;1.90;99.90;;;;;;5013031;28;20478;-50
2021/12/24 13:45:13;;;;;;;17.97;16.17;;;1.90;99.90;;;;;;5010962;28;20933;-50
2021/12/24 13:47:45;;;;;;;19.10;17.10;;;1.90;99.90;;;;;;5012838;28;20478;-51
2021/12/24 13:55:41;;;;;;;16.70;14.47;;;2.00;99.90;;;;;;5011273;28;20445;-49
2021/12/24 13:58:10;;;;;;;14.90;13.40;;;2.00;99.90;;;;;;5013460;28;20474;-51
2021/12/24 14:00:46;;;;;;;15.53;13.87;;;2.00;99.90;;;;;;5014177;28;20478;-50
2021/12/24 14:03:13;;;;;;;11.97;10.43;;;2.00;99.90;;;;;;5009653;28;20519;-50
2021/12/24 14:05:47;;;;;;;11.30;10.20;;;2.00;99.90;;;;;;5012298;28;20520;-50
2021/12/24 14:08:16;;;;;;;11.23;9.47;;;2.00;99.90;;;;;;5011877;28;20462;-48
2021/12/24 14:10:45;;;;;;;12.67;11.37;;;2.10;99.90;;;;;;5009136;28;20475;-50
2021/12/24 14:13:19;;;;;;;12.47;11.10;;;2.10;99.90;;;;;;5009482;28;20486;-53
2021/12/24 14:16:04;;;;;;;14.83;13.47;;;2.10;99.90;;;;;;5003981;28;20451;-50
2021/12/24 14:18:43;;;;;;;17.03;15.20;;;2.10;99.90;;;;;;5008100;28;21003;-49
2021/12/24 14:21:46;;;;;;;24.23;20.40;;;2.20;99.90;;;;;;5013431;28;20454;-50
2021/12/24 14:24:19;;;;;;;21.27;18.73;;;2.10;99.90;;;;;;5019472;28;20482;-48
2021/12/24 14:26:51;;;;;;;21.90;19.77;;;2.20;99.90;;;;;;5008006;28;20489;-50
2021/12/24 14:29:27;;;;;;;22.27;19.63;;;2.10;99.90;;;;;;5003597;28;20940;-49
2021/12/24 14:31:56;;;;;;;19.90;17.23;;;2.10;99.90;;;;;;5011128;28;20487;-50